Time;durP1;ratioP1;P1;durP2;ratioP2;P2;SDS_P1;SDS_P2;PMS_P1;PMS_P2;Temp;Humidity;BMP_temperature;BMP_pressure;BME280_temperature;BME280_humidity;BME280_pressure;Samples;Min_cycle;Max_cycle;Signal;HPM_P1;HPM_P2
2023/12/16 00:02:12;;;;;;;11.73;5.80;;;9.50;99.90;;;;;;4984217;28;20431;-29
2023/12/16 00:04:40;;;;;;;11.03;6.03;;;9.50;99.90;;;;;;4984383;28;20418;-29
2023/12/16 00:07:11;;;;;;;9.20;6.13;;;9.50;99.90;;;;;;4974221;28;20857;-29
2023/12/16 00:09:37;;;;;;;9.30;5.50;;;9.60;99.90;;;;;;4984350;28;20441;-30
2023/12/16 00:12:04;;;;;;;10.00;5.90;;;9.50;99.90;;;;;;4983910;28;20433;-29
2023/12/16 00:14:38;;;;;;;12.97;6.27;;;9.60;99.90;;;;;;4983717;28;20437;-30
2023/12/16 00:17:04;;;;;;;9.73;5.97;;;9.50;99.90;;;;;;4982726;28;20620;-28
2023/12/16 00:19:33;;;;;;;8.70;5.90;;;9.50;99.90;;;;;;4981869;28;20449;-30
2023/12/16 00:22:02;;;;;;;19.20;6.73;;;9.50;99.90;;;;;;4958359;28;20429;-29
2023/12/16 00:24:29;;;;;;;9.40;5.90;;;9.50;99.90;;;;;;4981835;28;20425;-29
2023/12/16 00:26:56;;;;;;;8.73;5.50;;;9.50;99.90;;;;;;4956898;28;20578;-29
2023/12/16 00:29:22;;;;;;;11.43;5.43;;;9.50;99.90;;;;;;4982633;28;20487;-29
2023/12/16 00:31:49;;;;;;;8.57;5.33;;;9.50;99.90;;;;;;4983165;28;20422;-29
2023/12/16 00:34:16;;;;;;;8.50;5.97;;;9.50;99.90;;;;;;4966685;28;20541;-29
2023/12/16 00:36:42;;;;;;;9.20;5.77;;;9.50;99.90;;;;;;4980999;28;20492;-29
2023/12/16 00:39:09;;;;;;;10.73;5.13;;;9.50;99.90;;;;;;4980633;28;20504;-29
2023/12/16 00:41:36;;;;;;;17.03;7.07;;;9.50;99.90;;;;;;4979987;28;20820;-29
2023/12/16 00:44:02;;;;;;;6.67;5.70;;;9.50;99.90;;;;;;4975512;28;20953;-29
2023/12/16 00:46:28;;;;;;;8.10;5.43;;;9.50;99.90;;;;;;4973022;28;20471;-29
2023/12/16 00:48:56;;;;;;;10.30;6.20;;;9.50;99.90;;;;;;4978309;28;20457;-29
2023/12/16 00:51:22;;;;;;;9.90;5.90;;;9.50;99.90;;;;;;4980091;28;20465;-29
2023/12/16 00:53:49;;;;;;;7.43;5.30;;;9.50;99.90;;;;;;4979887;28;20422;-29
2023/12/16 00:56:15;;;;;;;9.67;5.70;;;9.50;99.90;;;;;;4980205;28;20574;-29
2023/12/16 00:58:41;;;;;;;10.77;5.63;;;9.50;99.90;;;;;;4969898;28;20562;-29
2023/12/16 01:01:09;;;;;;;10.33;5.50;;;9.50;99.90;;;;;;4979804;28;20449;-30
2023/12/16 01:03:40;;;;;;;10.03;6.07;;;9.50;99.90;;;;;;4970274;28;20571;-29
2023/12/16 01:06:06;;;;;;;11.27;7.67;;;9.50;99.90;;;;;;4979335;28;20458;-28
2023/12/16 01:08:33;;;;;;;7.87;5.57;;;9.50;99.90;;;;;;4968623;28;20480;-29
2023/12/16 01:10:59;;;;;;;11.23;6.17;;;9.50;99.90;;;;;;4968892;28;20850;-28
2023/12/16 01:13:30;;;;;;;8.90;5.27;;;9.50;99.90;;;;;;4970649;28;20430;-29
2023/12/16 01:15:57;;;;;;;8.97;5.27;;;9.50;99.90;;;;;;4977213;28;20532;-29
2023/12/16 01:18:24;;;;;;;8.37;5.53;;;9.50;99.90;;;;;;4985377;28;20469;-31
2023/12/16 01:20:51;;;;;;;8.70;5.70;;;9.50;99.90;;;;;;4982840;28;20441;-29
2023/12/16 01:23:20;;;;;;;11.23;5.73;;;9.50;99.90;;;;;;4982132;28;20457;-30
2023/12/16 01:25:50;;;;;;;14.87;6.20;;;9.50;99.90;;;;;;4974578;28;21254;-30
2023/12/16 01:28:17;;;;;;;10.97;5.63;;;9.50;99.90;;;;;;4974533;28;20477;-29
2023/12/16 01:30:45;;;;;;;10.43;5.57;;;9.50;99.90;;;;;;4983313;28;20460;-29
2023/12/16 01:33:12;;;;;;;10.83;6.27;;;9.50;99.90;;;;;;4974329;28;20548;-30
2023/12/16 01:35:41;;;;;;;11.33;6.60;;;9.50;99.90;;;;;;4982678;28;20481;-30
2023/12/16 01:38:06;;;;;;;9.80;5.90;;;9.50;99.90;;;;;;4975681;28;20543;-30
2023/12/16 01:40:37;;;;;;;6.60;4.67;;;9.50;99.90;;;;;;4979244;28;20430;-29
2023/12/16 01:43:10;;;;;;;7.20;5.50;;;9.50;99.90;;;;;;4980431;28;20472;-28
2023/12/16 01:45:36;;;;;;;7.07;5.13;;;9.50;99.90;;;;;;4964893;28;20457;-29
2023/12/16 01:48:03;;;;;;;10.53;5.37;;;9.50;99.90;;;;;;4982726;28;20516;-30
2023/12/16 01:50:30;;;;;;;9.90;4.87;;;9.50;99.90;;;;;;4982783;28;20445;-30
2023/12/16 01:52:57;;;;;;;9.10;5.40;;;9.50;99.90;;;;;;4982540;28;20464;-29
2023/12/16 01:55:28;;;;;;;8.40;5.20;;;9.50;99.90;;;;;;4972393;28;20450;-29
2023/12/16 01:57:58;;;;;;;10.43;5.10;;;9.50;99.90;;;;;;4982317;28;20528;-31
2023/12/16 02:00:26;;;;;;;10.33;5.10;;;9.50;99.90;;;;;;4983171;28;20916;-29
2023/12/16 02:02:55;;;;;;;9.60;5.40;;;9.50;99.90;;;;;;4982449;28;21288;-29
2023/12/16 02:05:24;;;;;;;12.13;5.20;;;9.50;99.90;;;;;;4974323;28;20819;-29
2023/12/16 02:07:50;;;;;;;7.30;4.77;;;9.50;99.90;;;;;;4970322;28;20460;-30
2023/12/16 02:10:16;;;;;;;8.57;5.70;;;9.50;99.90;;;;;;4977316;28;20445;-29
2023/12/16 02:12:44;;;;;;;7.20;5.07;;;9.50;99.90;;;;;;4981165;28;20507;-30
2023/12/16 02:15:10;;;;;;;11.87;6.10;;;9.50;99.90;;;;;;4965630;28;20445;-29
2023/12/16 02:17:39;;;;;;;6.90;4.90;;;9.50;99.90;;;;;;4981813;28;20469;-29
2023/12/16 02:20:06;;;;;;;8.83;4.73;;;9.50;99.90;;;;;;4976835;28;20445;-30
2023/12/16 02:22:39;;;;;;;7.30;4.80;;;9.50;99.90;;;;;;4971440;28;21001;-30
2023/12/16 02:25:09;;;;;;;8.70;5.67;;;9.50;99.90;;;;;;4979902;28;21090;-29
2023/12/16 02:27:35;;;;;;;10.50;5.13;;;9.50;99.90;;;;;;4976236;28;20479;-30
2023/12/16 02:30:01;;;;;;;11.80;4.33;;;9.50;99.90;;;;;;4975672;28;20437;-29
2023/12/16 02:32:29;;;;;;;8.60;5.00;;;9.50;99.90;;;;;;4981561;28;20528;-29
2023/12/16 02:34:55;;;;;;;13.63;5.67;;;9.50;99.90;;;;;;4982743;28;20461;-29
2023/12/16 02:37:26;;;;;;;8.40;5.00;;;9.50;99.90;;;;;;4982644;28;20473;-30
2023/12/16 02:39:54;;;;;;;12.17;5.50;;;9.50;99.90;;;;;;4945133;28;20473;-30
2023/12/16 02:42:24;;;;;;;8.37;4.67;;;9.50;99.90;;;;;;4976386;28;20536;-29
2023/12/16 02:44:53;;;;;;;7.93;5.43;;;9.50;99.90;;;;;;4981597;28;20468;-29
2023/12/16 02:47:19;;;;;;;10.83;5.10;;;9.50;99.90;;;;;;4976539;28;20457;-29
2023/12/16 02:49:45;;;;;;;6.40;4.73;;;9.50;99.90;;;;;;4981700;28;20433;-29
2023/12/16 02:52:14;;;;;;;7.57;4.90;;;9.50;99.90;;;;;;4981495;28;20425;-29
2023/12/16 02:54:42;;;;;;;8.73;5.47;;;9.40;99.90;;;;;;4981667;28;20430;-30
2023/12/16 02:57:08;;;;;;;8.60;5.23;;;9.40;99.90;;;;;;4971691;28;20476;-29
2023/12/16 02:59:37;;;;;;;10.50;5.20;;;9.50;99.90;;;;;;4975605;28;20465;-29
2023/12/16 03:02:03;;;;;;;9.20;4.67;;;9.50;99.90;;;;;;4973212;28;20834;-29
2023/12/16 03:04:29;;;;;;;7.20;5.17;;;9.50;99.90;;;;;;4981482;28;20449;-29
2023/12/16 03:06:58;;;;;;;5.90;4.27;;;9.50;99.90;;;;;;4982137;28;20741;-29
2023/12/16 03:09:24;;;;;;;7.83;5.13;;;9.50;99.90;;;;;;4979506;28;20434;-29
2023/12/16 03:11:52;;;;;;;5.00;4.50;;;9.50;99.90;;;;;;4981606;28;20810;-30
2023/12/16 03:14:18;;;;;;;6.50;5.10;;;9.50;99.90;;;;;;4981635;28;20297;-29
2023/12/16 03:16:44;;;;;;;7.53;5.20;;;9.50;99.90;;;;;;4978671;28;21178;-29
2023/12/16 03:19:10;;;;;;;10.43;5.00;;;9.50;99.90;;;;;;4977019;28;20432;-30
2023/12/16 03:21:39;;;;;;;9.30;4.97;;;9.50;99.90;;;;;;4975933;28;20456;-29
2023/12/16 03:24:05;;;;;;;5.20;4.70;;;9.50;99.90;;;;;;4962410;28;20504;-29
2023/12/16 03:26:31;;;;;;;4.50;4.07;;;9.50;99.90;;;;;;4980367;28;20500;-28
2023/12/16 03:28:57;;;;;;;7.90;4.73;;;9.50;99.90;;;;;;4980534;28;20888;-29
2023/12/16 03:31:23;;;;;;;6.73;4.43;;;9.40;99.90;;;;;;4978812;28;20450;-29
2023/12/16 03:33:55;;;;;;;9.20;5.43;;;9.50;99.90;;;;;;5014450;23;20530;-87
2023/12/16 03:36:21;;;;;;;9.00;4.43;;;9.50;99.90;;;;;;4976587;28;20448;-87
2023/12/16 03:38:47;;;;;;;7.07;4.73;;;9.50;99.90;;;;;;4992234;28;21055;-87
2023/12/16 03:41:20;;;;;;;6.70;4.87;;;9.50;99.90;;;;;;4976218;28;21254;-87
2023/12/16 03:43:47;;;;;;;10.40;4.87;;;9.50;99.90;;;;;;4975946;28;20529;-87
2023/12/16 03:46:19;;;;;;;7.77;4.70;;;9.40;99.90;;;;;;4992862;28;20508;-86
2023/12/16 03:48:49;;;;;;;6.20;4.57;;;9.40;99.90;;;;;;4960310;28;20467;-87
2023/12/16 03:51:15;;;;;;;9.27;4.20;;;9.40;99.90;;;;;;4976919;28;20460;-86
2023/12/16 03:53:42;;;;;;;8.73;5.07;;;9.40;99.90;;;;;;4976354;28;20460;-86
2023/12/16 03:56:10;;;;;;;6.70;3.80;;;9.40;99.90;;;;;;4976574;28;20437;-85
2023/12/16 03:58:41;;;;;;;7.83;4.47;;;9.40;99.90;;;;;;4991930;28;20473;-87
2023/12/16 04:01:13;;;;;;;6.57;4.57;;;9.40;99.90;;;;;;4991995;28;21078;-89
2023/12/16 04:03:42;;;;;;;8.20;4.47;;;9.40;99.90;;;;;;4976350;28;20451;-89
2023/12/16 04:06:16;;;;;;;4.83;4.20;;;9.40;99.90;;;;;;4976400;28;20457;-87
2023/12/16 04:08:42;;;;;;;5.37;3.90;;;9.40;99.90;;;;;;4976511;28;20432;-86
2023/12/16 04:11:11;;;;;;;6.27;3.90;;;9.40;99.90;;;;;;4976624;28;20439;-88
2023/12/16 04:13:37;;;;;;;6.90;4.20;;;9.40;99.90;;;;;;4993482;28;20983;-87
2023/12/16 04:16:04;;;;;;;10.03;4.70;;;9.40;99.90;;;;;;4954339;28;20477;-86
2023/12/16 04:18:33;;;;;;;7.73;4.10;;;9.40;99.90;;;;;;4971252;28;20481;-86
2023/12/16 04:21:01;;;;;;;8.93;4.30;;;9.40;99.90;;;;;;4971790;28;20425;-87
2023/12/16 04:23:28;;;;;;;8.77;4.20;;;9.40;99.90;;;;;;4988894;28;20760;-87
2023/12/16 04:25:55;;;;;;;10.77;5.67;;;9.40;99.90;;;;;;4956513;28;20846;-88
2023/12/16 04:28:21;;;;;;;7.57;4.67;;;9.40;99.90;;;;;;4971093;28;20425;-85
2023/12/16 04:30:48;;;;;;;10.27;4.93;;;9.40;99.90;;;;;;4954759;28;20435;-87
2023/12/16 04:33:14;;;;;;;10.17;4.40;;;9.40;99.90;;;;;;4972874;28;20464;-83
2023/12/16 04:35:48;;;;;;;7.83;4.83;;;9.40;99.90;;;;;;4963296;28;20479;-87
2023/12/16 04:38:15;;;;;;;7.73;4.00;;;9.40;99.90;;;;;;4968882;28;20587;-87
2023/12/16 04:40:44;;;;;;;7.83;4.40;;;9.40;99.90;;;;;;4979314;28;20535;-88
2023/12/16 04:43:11;;;;;;;11.03;4.30;;;9.40;99.90;;;;;;4962488;28;20452;-89
2023/12/16 04:45:43;;;;;;;11.93;4.53;;;9.40;99.90;;;;;;4964805;28;20435;-89
2023/12/16 04:48:09;;;;;;;8.17;4.77;;;9.40;99.90;;;;;;4988045;28;20579;-89
2023/12/16 04:50:38;;;;;;;9.20;4.50;;;9.40;99.90;;;;;;4960415;28;20459;-89
2023/12/16 04:53:07;;;;;;;6.90;4.53;;;9.40;99.90;;;;;;4955719;28;20487;-88
2023/12/16 04:55:33;;;;;;;6.60;4.47;;;9.40;99.90;;;;;;4967203;28;20498;-88
2023/12/16 04:58:07;;;;;;;10.97;4.87;;;9.40;99.90;;;;;;4975539;28;21412;-88
2023/12/16 05:00:33;;;;;;;14.37;5.43;;;9.40;99.90;;;;;;4963487;28;20475;-88
2023/12/16 05:02:59;;;;;;;5.13;4.00;;;9.40;99.90;;;;;;4969735;28;20459;-87
2023/12/16 05:05:27;;;;;;;4.90;4.10;;;9.40;99.90;;;;;;4977768;28;20814;-88
2023/12/16 05:07:53;;;;;;;11.40;4.57;;;9.40;99.90;;;;;;4962276;28;20440;-88
2023/12/16 05:10:21;;;;;;;8.70;4.40;;;9.40;99.90;;;;;;4980678;28;20432;-88
2023/12/16 05:12:47;;;;;;;8.53;4.00;;;9.40;99.90;;;;;;4961218;28;20465;-89
2023/12/16 05:15:25;;;;;;;6.33;4.20;;;9.40;99.90;;;;;;4984117;28;20441;-89
2023/12/16 05:18:00;;;;;;;9.30;4.40;;;9.40;99.90;;;;;;4970021;28;20482;-88
2023/12/16 05:20:26;;;;;;;6.30;4.03;;;9.40;99.90;;;;;;4981449;28;20519;-86
2023/12/16 05:22:52;;;;;;;9.43;4.73;;;9.40;99.90;;;;;;4965390;28;20597;-88
2023/12/16 05:25:18;;;;;;;8.47;4.47;;;9.40;99.90;;;;;;4968890;28;20497;-88
2023/12/16 05:27:48;;;;;;;8.83;5.17;;;9.40;99.90;;;;;;4967717;28;21296;-89
2023/12/16 05:30:25;;;;;;;9.53;4.33;;;9.40;99.90;;;;;;4991885;28;21010;-88
2023/12/16 05:32:51;;;;;;;7.07;4.00;;;9.40;99.90;;;;;;4978398;23;20653;-36
2023/12/16 05:35:20;;;;;;;6.70;4.30;;;9.40;99.90;;;;;;4978657;28;20469;-35
2023/12/16 05:37:47;;;;;;;10.47;4.37;;;9.40;99.90;;;;;;4963224;28;20466;-38
2023/12/16 05:40:15;;;;;;;5.30;3.90;;;9.40;99.90;;;;;;4978921;28;20519;-37
2023/12/16 05:42:41;;;;;;;10.13;4.90;;;9.40;99.90;;;;;;4979023;28;20440;-39
2023/12/16 05:45:08;;;;;;;8.03;4.33;;;9.40;99.90;;;;;;4978762;28;20491;-39
2023/12/16 05:47:34;;;;;;;10.00;5.67;;;9.40;99.90;;;;;;4978785;28;20452;-39
2023/12/16 05:50:04;;;;;;;6.90;3.97;;;9.40;99.90;;;;;;4960422;28;20528;-39
2023/12/16 05:52:33;;;;;;;7.40;4.13;;;9.40;99.90;;;;;;4979139;28;20853;-38
2023/12/16 05:54:59;;;;;;;6.80;4.37;;;9.40;99.90;;;;;;4975027;28;20588;-38
2023/12/16 05:57:28;;;;;;;10.43;4.10;;;9.40;99.90;;;;;;4979057;28;20531;-35
2023/12/16 05:59:56;;;;;;;9.53;4.70;;;9.40;99.90;;;;;;4978395;28;20576;-36
2023/12/16 06:02:22;;;;;;;4.60;3.87;;;9.40;99.90;;;;;;4978916;28;20524;-39
2023/12/16 06:04:50;;;;;;;4.13;3.70;;;9.40;99.90;;;;;;4981295;28;20453;-39
2023/12/16 06:07:16;;;;;;;7.70;4.30;;;9.40;99.90;;;;;;4983280;28;20425;-39
2023/12/16 06:09:45;;;;;;;10.90;4.63;;;9.40;99.90;;;;;;4968748;28;20429;-38
2023/12/16 06:12:11;;;;;;;10.17;3.50;;;9.40;99.90;;;;;;4979243;28;21309;-36
2023/12/16 06:14:37;;;;;;;10.53;4.83;;;9.40;99.90;;;;;;4983101;28;20433;-39
2023/12/16 06:17:07;;;;;;;6.60;3.90;;;9.40;99.90;;;;;;4982710;28;20206;-39
2023/12/16 06:19:33;;;;;;;5.13;4.10;;;9.40;99.90;;;;;;4962912;28;20423;-38
2023/12/16 06:21:59;;;;;;;10.83;4.17;;;9.40;99.90;;;;;;4983397;28;20453;-37
2023/12/16 06:24:26;;;;;;;7.37;4.60;;;9.40;99.90;;;;;;4960950;28;20442;-41
2023/12/16 06:26:55;;;;;;;10.63;3.50;;;9.40;99.90;;;;;;4981326;28;20470;-38
2023/12/16 06:29:22;;;;;;;7.30;3.97;;;9.40;99.90;;;;;;4969748;28;20450;-42
2023/12/16 06:31:48;;;;;;;9.90;4.40;;;9.40;99.90;;;;;;4982539;28;20445;-40
2023/12/16 06:34:16;;;;;;;4.97;3.63;;;9.40;99.90;;;;;;4973989;28;20434;-39
2023/12/16 06:36:42;;;;;;;6.53;4.23;;;9.40;99.90;;;;;;4969406;28;20202;-39
2023/12/16 06:39:08;;;;;;;8.90;5.23;;;9.40;99.90;;;;;;4982500;28;20872;-41
2023/12/16 06:41:34;;;;;;;9.17;4.30;;;9.40;99.90;;;;;;4959729;28;20528;-40
2023/12/16 06:44:00;;;;;;;10.27;4.53;;;9.40;99.90;;;;;;4982042;28;20908;-40
2023/12/16 06:46:26;;;;;;;8.60;4.37;;;9.40;99.90;;;;;;4981723;28;21086;-40
2023/12/16 06:48:54;;;;;;;10.83;5.40;;;9.40;99.90;;;;;;4982245;28;20457;-40
2023/12/16 06:51:20;;;;;;;8.60;3.90;;;9.40;99.90;;;;;;4967542;28;20500;-38
2023/12/16 06:53:49;;;;;;;5.97;3.90;;;9.40;99.90;;;;;;4982132;28;20524;-40
2023/12/16 06:56:15;;;;;;;8.40;4.03;;;9.40;99.90;;;;;;4975899;28;20512;-40
2023/12/16 06:58:43;;;;;;;7.77;4.50;;;9.40;99.90;;;;;;4981487;28;21274;-37
2023/12/16 07:01:11;;;;;;;7.40;4.23;;;9.40;99.90;;;;;;4981442;28;20457;-38
2023/12/16 07:03:37;;;;;;;10.80;4.67;;;9.40;99.90;;;;;;4972614;28;21183;-37
2023/12/16 07:06:05;;;;;;;5.40;3.57;;;9.40;99.90;;;;;;4968447;28;20445;-35
2023/12/16 07:08:34;;;;;;;7.77;4.00;;;9.40;99.90;;;;;;4958886;28;21136;-39
2023/12/16 07:11:05;;;;;;;7.20;4.10;;;9.40;99.90;;;;;;4981136;28;20580;-37
2023/12/16 07:13:31;;;;;;;10.73;4.47;;;9.40;99.90;;;;;;4973849;28;20426;-40
2023/12/16 07:15:57;;;;;;;6.03;3.53;;;9.40;99.90;;;;;;4979206;28;20453;-38
2023/12/16 07:18:25;;;;;;;7.20;4.13;;;9.40;99.90;;;;;;4979668;28;20561;-40
2023/12/16 07:20:55;;;;;;;6.67;3.83;;;9.40;99.90;;;;;;4980232;28;20433;-40
2023/12/16 07:23:28;;;;;;;5.27;4.23;;;9.40;99.90;;;;;;4981055;28;20426;-38
2023/12/16 07:25:54;;;;;;;6.67;4.20;;;9.40;99.90;;;;;;4981066;28;20445;-38
2023/12/16 07:28:21;;;;;;;9.70;4.37;;;9.40;99.90;;;;;;4981283;28;20465;-35
2023/12/16 07:30:47;;;;;;;5.63;3.70;;;9.40;99.90;;;;;;4980462;28;20457;-38
2023/12/16 07:33:14;;;;;;;7.47;4.33;;;9.40;99.90;;;;;;4980751;28;20484;-40
2023/12/16 07:35:40;;;;;;;7.63;4.10;;;9.40;99.90;;;;;;4969005;28;20477;-39
2023/12/16 07:38:07;;;;;;;7.63;4.23;;;9.40;99.90;;;;;;4979847;28;20535;-40
2023/12/16 07:40:36;;;;;;;7.70;5.10;;;9.40;99.90;;;;;;4967787;28;20429;-40
2023/12/16 07:43:02;;;;;;;8.57;4.10;;;9.40;99.90;;;;;;4979250;28;20459;-39
2023/12/16 07:45:28;;;;;;;8.63;3.90;;;9.40;99.90;;;;;;4979828;28;20449;-40
2023/12/16 07:47:56;;;;;;;6.17;4.23;;;9.40;99.90;;;;;;4978780;28;20800;-40
2023/12/16 07:50:22;;;;;;;8.93;3.90;;;9.40;99.90;;;;;;4971125;28;20869;-40
2023/12/16 07:52:49;;;;;;;6.53;3.50;;;9.40;99.90;;;;;;4980114;28;20441;-39
2023/12/16 07:55:17;;;;;;;9.73;4.43;;;9.40;99.90;;;;;;4980071;28;20468;-36
2023/12/16 07:57:43;;;;;;;6.93;3.80;;;9.30;99.90;;;;;;4978726;28;20461;-40
2023/12/16 08:00:11;;;;;;;12.07;4.10;;;9.30;99.90;;;;;;4966052;28;20441;-40
2023/12/16 08:02:37;;;;;;;11.80;4.50;;;9.30;99.90;;;;;;4979232;28;20541;-39
2023/12/16 08:05:05;;;;;;;7.77;4.40;;;9.30;99.90;;;;;;4957017;28;20938;-38
2023/12/16 08:07:34;;;;;;;13.30;4.17;;;9.30;99.90;;;;;;4972937;28;20544;-40
2023/12/16 08:10:05;;;;;;;9.33;3.70;;;9.30;99.90;;;;;;4978859;28;20468;-40
2023/12/16 08:12:31;;;;;;;7.10;4.07;;;9.30;99.90;;;;;;4978352;28;20456;-40
2023/12/16 08:14:57;;;;;;;8.43;4.23;;;9.30;99.90;;;;;;4979279;28;20457;-39
2023/12/16 08:17:23;;;;;;;5.83;4.20;;;9.30;99.90;;;;;;4978134;28;20469;-40
2023/12/16 08:19:52;;;;;;;5.67;3.63;;;9.30;99.90;;;;;;4979093;28;20897;-39
2023/12/16 08:22:18;;;;;;;12.10;4.43;;;9.30;99.90;;;;;;4965046;28;20544;-40
2023/12/16 08:24:44;;;;;;;6.60;3.30;;;9.30;99.90;;;;;;4978336;28;20999;-40
2023/12/16 08:27:10;;;;;;;9.00;3.80;;;9.30;99.90;;;;;;4976980;28;20452;-37
2023/12/16 08:29:37;;;;;;;6.20;3.57;;;9.30;99.90;;;;;;4978224;28;20532;-40
2023/12/16 08:32:04;;;;;;;8.00;3.93;;;9.30;99.90;;;;;;4969577;28;20492;-41
2023/12/16 08:34:33;;;;;;;6.77;3.60;;;9.40;99.90;;;;;;4979280;28;21051;-40
2023/12/16 08:37:01;;;;;;;5.10;3.50;;;9.30;99.90;;;;;;4979218;28;20489;-39
2023/12/16 08:39:31;;;;;;;5.80;4.00;;;9.30;99.90;;;;;;4981794;28;20468;-39
2023/12/16 08:41:57;;;;;;;10.00;4.03;;;9.30;99.90;;;;;;4968169;28;20473;-40
2023/12/16 08:44:23;;;;;;;9.90;4.57;;;9.30;99.90;;;;;;4958053;28;20519;-40
2023/12/16 08:46:51;;;;;;;8.67;3.90;;;9.30;99.90;;;;;;4977645;28;20446;-40
2023/12/16 08:49:17;;;;;;;8.33;4.20;;;9.30;99.90;;;;;;4975250;28;21403;-39
2023/12/16 08:51:43;;;;;;;10.37;3.73;;;9.30;99.90;;;;;;4974636;28;20453;-38
2023/12/16 08:54:09;;;;;;;7.30;3.90;;;9.30;99.90;;;;;;4979858;28;20484;-40
2023/12/16 08:56:36;;;;;;;7.77;3.97;;;9.30;99.90;;;;;;4984005;28;20453;-42
2023/12/16 08:59:02;;;;;;;8.77;4.00;;;9.30;99.90;;;;;;4980432;28;20619;-40
2023/12/16 09:01:28;;;;;;;6.97;3.70;;;9.30;99.90;;;;;;4975360;28;20430;-40
2023/12/16 09:03:54;;;;;;;5.70;4.27;;;9.30;99.90;;;;;;4968584;28;20544;-40
2023/12/16 09:06:20;;;;;;;9.20;3.80;;;9.30;99.90;;;;;;4981431;28;20449;-40
2023/12/16 09:08:47;;;;;;;7.77;3.60;;;9.30;99.90;;;;;;4970548;28;20433;-37
2023/12/16 09:11:16;;;;;;;6.67;3.70;;;9.30;99.90;;;;;;4982298;28;20879;-39
2023/12/16 09:13:46;;;;;;;5.50;4.13;;;9.30;99.90;;;;;;4980861;28;21024;-40
2023/12/16 09:16:13;;;;;;;8.43;3.50;;;9.30;99.90;;;;;;4981225;28;20991;-41
2023/12/16 09:18:39;;;;;;;5.53;3.20;;;9.30;99.90;;;;;;4968531;28;20469;-38
2023/12/16 09:21:15;;;;;;;13.00;4.00;;;9.30;99.90;;;;;;4967601;28;20964;-40
2023/12/16 09:23:41;;;;;;;8.17;4.63;;;9.30;99.90;;;;;;4967076;28;20581;-37
2023/12/16 09:26:17;;;;;;;5.80;3.90;;;9.30;99.90;;;;;;4975287;28;20507;-40
2023/12/16 09:28:48;;;;;;;5.40;3.77;;;9.30;99.90;;;;;;4974680;28;20417;-40
2023/12/16 09:31:16;;;;;;;7.83;4.00;;;9.30;99.90;;;;;;4977456;28;20443;-40
2023/12/16 09:33:42;;;;;;;4.53;3.53;;;9.30;99.90;;;;;;4961871;28;20480;-38
2023/12/16 09:36:13;;;;;;;5.40;3.37;;;9.30;99.90;;;;;;4976477;28;20461;-37
2023/12/16 09:38:40;;;;;;;5.53;3.60;;;9.30;99.90;;;;;;4969363;28;20527;-39
2023/12/16 09:41:30;;;;;;;6.67;3.40;;;9.40;99.90;;;;;;4981011;28;20468;-39
2023/12/16 09:43:58;;;;;;;8.73;3.63;;;9.30;99.90;;;;;;4981431;28;20508;-32
2023/12/16 09:46:29;;;;;;;13.03;4.10;;;9.30;99.90;;;;;;4975348;28;20457;-33
2023/12/16 09:48:59;;;;;;;7.47;4.77;;;9.30;99.90;;;;;;4983286;28;20424;-37
2023/12/16 09:51:25;;;;;;;8.63;4.17;;;9.30;99.90;;;;;;4983433;28;20417;-35
2023/12/16 09:53:52;;;;;;;16.63;4.20;;;9.40;99.90;;;;;;4949926;28;20426;-33
2023/12/16 09:56:19;;;;;;;4.80;3.60;;;9.40;99.90;;;;;;4964742;28;20607;-35
2023/12/16 09:58:47;;;;;;;6.27;3.57;;;9.40;99.90;;;;;;4964619;28;20487;-34
2023/12/16 10:01:14;;;;;;;9.00;3.20;;;9.40;99.90;;;;;;4982585;28;20441;-29
2023/12/16 10:03:41;;;;;;;8.27;3.83;;;9.40;99.90;;;;;;4982475;28;20441;-35
2023/12/16 10:06:09;;;;;;;9.27;3.70;;;9.40;99.90;;;;;;4965141;28;20476;-31
2023/12/16 10:08:35;;;;;;;6.43;3.50;;;9.40;99.90;;;;;;4951905;28;20437;-29
2023/12/16 10:11:03;;;;;;;7.90;4.53;;;9.40;99.90;;;;;;4982362;28;20466;-33
2023/12/16 10:13:30;;;;;;;5.80;3.43;;;9.40;99.90;;;;;;4982366;28;20429;-31
2023/12/16 10:15:57;;;;;;;11.20;4.10;;;9.40;99.90;;;;;;4982343;28;20495;-31
2023/12/16 10:18:26;;;;;;;5.83;3.57;;;9.40;99.90;;;;;;4965057;28;20512;-32
2023/12/16 10:20:55;;;;;;;6.50;4.00;;;9.40;99.90;;;;;;4983651;28;20762;-27
2023/12/16 10:23:25;;;;;;;7.13;3.90;;;9.50;99.90;;;;;;4982845;28;20920;-29
2023/12/16 10:25:51;;;;;;;6.50;4.00;;;9.50;99.90;;;;;;4969246;28;20458;-34
2023/12/16 10:28:20;;;;;;;8.80;3.43;;;9.40;99.90;;;;;;4965074;28;21273;-30
2023/12/16 10:30:47;;;;;;;12.27;3.80;;;9.50;99.90;;;;;;4965503;28;20473;-32
2023/12/16 10:33:16;;;;;;;9.20;3.40;;;9.50;99.90;;;;;;4982127;28;20438;-29
2023/12/16 10:35:43;;;;;;;14.07;4.13;;;9.50;99.90;;;;;;4982284;28;20449;-34
2023/12/16 10:38:10;;;;;;;5.83;3.53;;;9.50;99.90;;;;;;4982210;28;20465;-28
2023/12/16 10:40:37;;;;;;;5.00;3.10;;;9.50;99.90;;;;;;4983152;28;20452;-35
2023/12/16 10:43:04;;;;;;;5.83;2.97;;;9.50;99.90;;;;;;4982713;28;20464;-30
2023/12/16 10:45:30;;;;;;;5.03;3.87;;;9.50;99.90;;;;;;4970855;28;21393;-28
2023/12/16 10:48:01;;;;;;;8.03;3.90;;;9.50;99.90;;;;;;4980770;28;20452;-29
2023/12/16 10:50:29;;;;;;;9.50;4.03;;;9.50;99.90;;;;;;4980965;28;20786;-32
2023/12/16 10:52:59;;;;;;;5.20;2.97;;;9.50;99.90;;;;;;4981877;28;20405;-29
2023/12/16 10:55:35;;;;;;;7.80;3.63;;;9.50;99.90;;;;;;4972735;28;20454;-31
2023/12/16 10:58:36;;;;;;;9.30;3.10;;;9.50;99.90;;;;;;4967729;28;20473;-31
2023/12/16 11:01:16;;;;;;;7.53;3.90;;;9.50;99.90;;;;;;4959724;28;20488;-29
2023/12/16 11:03:54;;;;;;;7.47;3.20;;;9.50;99.90;;;;;;4980758;28;20584;-28
2023/12/16 11:06:31;;;;;;;6.73;3.00;;;9.50;99.90;;;;;;4963027;28;20456;-34
2023/12/16 11:08:59;;;;;;;10.63;4.10;;;9.50;99.90;;;;;;4946823;28;20528;-28
2023/12/16 11:11:25;;;;;;;5.17;3.53;;;9.50;99.90;;;;;;4963435;28;20440;-27
2023/12/16 11:13:54;;;;;;;13.90;4.10;;;9.50;99.90;;;;;;4963642;28;21073;-30
2023/12/16 11:16:53;;;;;;;6.53;3.30;;;9.50;99.90;;;;;;4981010;28;21271;-30
2023/12/16 11:19:30;;;;;;;5.27;3.63;;;9.50;99.90;;;;;;4980984;28;20445;-29
2023/12/16 11:21:56;;;;;;;5.90;3.43;;;9.50;99.90;;;;;;4980458;28;20436;-28
2023/12/16 11:24:22;;;;;;;7.10;3.73;;;9.50;99.90;;;;;;4980246;28;20418;-27
2023/12/16 11:26:52;;;;;;;9.40;4.37;;;9.50;99.90;;;;;;4981378;28;20487;-31
2023/12/16 11:29:25;;;;;;;11.27;6.40;;;9.50;99.90;;;;;;4981626;28;21196;-30
2023/12/16 11:31:56;;;;;;;6.40;3.40;;;9.50;99.90;;;;;;4963831;28;20485;-34
2023/12/16 11:34:52;;;;;;;7.20;3.53;;;9.50;99.90;;;;;;4963690;28;20491;-31
2023/12/16 11:37:36;;;;;;;5.50;3.10;;;9.50;99.90;;;;;;4978896;28;20617;-32
2023/12/16 11:40:04;;;;;;;14.30;4.20;;;9.50;99.90;;;;;;4964416;28;20409;-32
2023/12/16 11:42:46;;;;;;;7.33;3.53;;;9.50;99.90;;;;;;4964318;28;21233;-34
2023/12/16 11:45:48;;;;;;;10.57;4.40;;;9.50;99.90;;;;;;4982564;28;21092;-37
2023/12/16 11:48:16;;;;;;;8.93;3.93;;;9.60;99.90;;;;;;4932966;28;20429;-36
2023/12/16 11:50:45;;;;;;;9.03;3.33;;;9.60;99.90;;;;;;4964532;28;20886;-34
2023/12/16 11:53:14;;;;;;;12.20;3.50;;;9.60;99.90;;;;;;4982741;28;21284;-39
2023/12/16 11:55:41;;;;;;;12.00;4.03;;;9.60;99.90;;;;;;4973171;28;20503;-33
2023/12/16 11:58:07;;;;;;;17.60;4.80;;;9.70;99.90;;;;;;4978067;28;20474;-37
2023/12/16 12:00:34;;;;;;;36.07;5.90;;;9.70;99.90;;;;;;4965049;28;20964;-35
2023/12/16 12:03:02;;;;;;;27.20;5.40;;;9.70;99.90;;;;;;4986048;28;20448;-39
2023/12/16 12:05:31;;;;;;;19.20;4.23;;;9.80;99.90;;;;;;4985745;28;20469;-34
2023/12/16 12:07:57;;;;;;;13.40;4.77;;;9.90;99.90;;;;;;4966408;28;20422;-34
2023/12/16 12:10:25;;;;;;;5.90;3.30;;;9.80;99.90;;;;;;4966012;28;20449;-37
2023/12/16 12:12:52;;;;;;;17.13;4.07;;;9.90;99.90;;;;;;4984263;28;20529;-37
2023/12/16 12:15:19;;;;;;;13.60;4.00;;;9.90;99.90;;;;;;4966006;28;20477;-36
2023/12/16 12:17:45;;;;;;;17.53;4.53;;;10.00;99.90;;;;;;4984117;28;20480;-39
2023/12/16 12:20:17;;;;;;;9.10;4.30;;;10.00;99.90;;;;;;4966831;28;20473;-38
2023/12/16 12:22:44;;;;;;;14.70;4.30;;;10.00;99.90;;;;;;4983137;28;20901;-39
2023/12/16 12:25:18;;;;;;;17.43;4.20;;;10.00;99.90;;;;;;4966463;28;20969;-36
2023/12/16 12:27:44;;;;;;;14.30;3.87;;;10.00;99.90;;;;;;4965896;28;20450;-35
2023/12/16 12:30:18;;;;;;;7.33;3.30;;;10.00;99.90;;;;;;4950230;28;20434;-35
2023/12/16 12:32:44;;;;;;;9.23;3.90;;;10.00;99.90;;;;;;4983524;28;20445;-35
2023/12/16 12:35:11;;;;;;;11.03;4.10;;;10.00;99.90;;;;;;4983313;28;20456;-37
2023/12/16 12:37:39;;;;;;;7.43;3.87;;;10.00;99.90;;;;;;4977439;28;20465;-39
2023/12/16 12:40:18;;;;;;;13.33;3.70;;;10.00;99.90;;;;;;4982929;28;20456;-37
2023/12/16 12:42:50;;;;;;;18.80;4.73;;;10.00;99.90;;;;;;4963885;28;20417;-38
2023/12/16 12:45:43;;;;;;;12.40;3.80;;;10.00;99.90;;;;;;4980984;28;20449;-32
2023/12/16 12:48:17;;;;;;;6.80;3.50;;;9.90;99.90;;;;;;4961260;28;20461;-37
2023/12/16 12:50:47;;;;;;;10.27;4.03;;;9.90;99.90;;;;;;4978773;28;20436;-34
2023/12/16 12:53:16;;;;;;;14.10;4.23;;;9.90;99.90;;;;;;4973775;28;20809;-33
2023/12/16 12:55:43;;;;;;;10.97;4.27;;;9.90;99.90;;;;;;4958979;28;20442;-32
2023/12/16 12:58:10;;;;;;;14.03;4.80;;;9.90;99.90;;;;;;4959043;28;20556;-36
2023/12/16 13:00:37;;;;;;;11.43;4.03;;;9.90;99.90;;;;;;4959046;28;20442;-36